Time;durP1;ratioP1;P1;durP2;ratioP2;P2;SDS_P1;SDS_P2;PMS_P1;PMS_P2;Temp;Humidity;BMP_temperature;BMP_pressure;BME280_temperature;BME280_humidity;BME280_pressure;Samples;Min_cycle;Max_cycle;Signal;HPM_P1;HPM_P2
2022/11/27 06:03:44;;;;;;;27.27;16.75;;;-0.50;99.90;;;;;;4904475;29;20118;-74
2022/11/27 06:06:13;;;;;;;24.98;16.40;;;-0.50;99.90;;;;;;4900144;29;20314;-73
2022/11/27 06:08:39;;;;;;;27.60;16.67;;;-0.60;99.90;;;;;;4908841;29;20099;-72
2022/11/27 06:11:11;;;;;;;27.30;16.13;;;-0.50;99.90;;;;;;4909113;29;20040;-75
2022/11/27 06:13:37;;;;;;;27.75;17.20;;;-0.50;99.90;;;;;;4908389;29;20036;-75
2022/11/27 06:16:18;;;;;;;29.98;17.17;;;-0.50;99.90;;;;;;4908737;29;20036;-74
2022/11/27 06:18:47;;;;;;;27.08;16.45;;;-0.50;99.90;;;;;;4905602;29;20366;-73
2022/11/27 06:21:13;;;;;;;26.85;15.90;;;-0.60;99.90;;;;;;4891803;29;20382;-73
2022/11/27 06:23:42;;;;;;;25.45;16.27;;;-0.70;99.90;;;;;;4908206;29;20352;-74
2022/11/27 06:26:13;;;;;;;30.10;17.00;;;-0.70;99.90;;;;;;4886694;29;20036;-72
2022/11/27 06:28:40;;;;;;;26.50;16.15;;;-0.60;99.90;;;;;;4908226;29;20031;-73
2022/11/27 06:31:10;;;;;;;24.92;15.80;;;-0.70;99.90;;;;;;4908632;29;20039;-74
2022/11/27 06:33:37;;;;;;;28.13;16.52;;;-0.70;99.90;;;;;;4907143;29;20064;-74
2022/11/27 06:36:04;;;;;;;27.45;16.30;;;-0.70;99.90;;;;;;4907965;29;20024;-73
2022/11/27 06:38:32;;;;;;;25.25;16.05;;;-0.70;99.90;;;;;;4908136;29;20032;-72
2022/11/27 06:41:01;;;;;;;;;;;-0.80;99.90;;;;;;4908517;29;20323;-73
2022/11/27 06:43:27;;;;;;;26.50;15.60;;;-0.80;99.90;;;;;;4908438;29;19946;-75
2022/11/27 06:46:00;;;;;;;24.13;15.18;;;-0.70;99.90;;;;;;4903112;29;20029;-73
2022/11/27 06:48:26;;;;;;;29.25;15.73;;;-0.70;99.90;;;;;;4908141;29;20088;-74
2022/11/27 06:51:02;;;;;;;25.92;15.10;;;-0.60;99.90;;;;;;4907794;29;20059;-74
2022/11/27 06:53:29;;;;;;;28.00;15.50;;;-0.60;99.90;;;;;;4908236;29;20032;-72
2022/11/27 06:55:56;;;;;;;23.40;14.05;;;-0.60;99.90;;;;;;4907528;29;20046;-73
2022/11/27 06:58:22;;;;;;;24.58;14.13;;;-0.60;99.90;;;;;;4906715;29;20268;-71
2022/11/27 07:00:48;;;;;;;24.92;15.00;;;-0.60;99.90;;;;;;4905747;29;20245;-72
2022/11/27 07:03:14;;;;;;;31.90;19.05;;;-0.50;99.90;;;;;;4905778;29;20048;-74
2022/11/27 07:05:39;;;;;;;28.33;17.17;;;-0.50;99.90;;;;;;4888402;29;20045;-74
2022/11/27 07:08:05;;;;;;;48.33;29.08;;;-0.50;99.90;;;;;;4890441;29;20040;-75
2022/11/27 07:10:35;;;;;;;45.28;27.80;;;-0.50;99.90;;;;;;4887306;29;20041;-74
2022/11/27 07:13:03;;;;;;;27.42;16.25;;;-0.40;99.90;;;;;;4887112;29;20295;-73
2022/11/27 07:15:29;;;;;;;26.35;15.90;;;-0.40;99.90;;;;;;4887358;29;20029;-74
2022/11/27 07:17:56;;;;;;;26.05;14.68;;;-0.30;99.90;;;;;;4886675;29;20029;-72
2022/11/27 07:20:22;;;;;;;24.50;13.93;;;-0.20;99.90;;;;;;4886969;29;20029;-73
2022/11/27 07:22:47;;;;;;;22.70;13.82;;;0.00;99.90;;;;;;4886670;29;20220;-75
2022/11/27 07:25:13;;;;;;;22.63;14.00;;;0.10;99.90;;;;;;4887087;29;20036;-75
2022/11/27 07:27:39;;;;;;;22.20;13.25;;;0.20;99.90;;;;;;4892483;29;20025;-74
2022/11/27 07:30:07;;;;;;;21.48;12.90;;;0.20;99.90;;;;;;4890174;29;20069;-72
2022/11/27 07:32:36;;;;;;;24.35;14.77;;;0.40;99.90;;;;;;4886679;29;20049;-74
2022/11/27 07:35:10;;;;;;;23.02;14.52;;;0.40;99.90;;;;;;4886379;29;20279;-74
2022/11/27 07:37:36;;;;;;;17.70;11.80;;;0.50;99.90;;;;;;4887898;29;20040;-75
2022/11/27 07:40:02;;;;;;;18.55;10.95;;;0.60;99.90;;;;;;4888610;29;20033;-73
2022/11/27 07:42:31;;;;;;;16.85;10.82;;;0.60;99.90;;;;;;4872336;29;20029;-72
2022/11/27 07:44:59;;;;;;;17.52;11.25;;;0.70;99.90;;;;;;4888097;29;20029;-73
2022/11/27 07:47:25;;;;;;;19.63;11.15;;;0.80;99.90;;;;;;4888058;29;20062;-73
2022/11/27 07:49:53;;;;;;;17.27;10.82;;;0.70;99.90;;;;;;4904895;29;20028;-72
2022/11/27 07:52:19;;;;;;;16.75;10.63;;;0.70;99.90;;;;;;4890648;29;20051;-71
2022/11/27 07:54:45;;;;;;;16.55;10.35;;;0.80;99.90;;;;;;4907036;29;20031;-72
2022/11/27 07:57:12;;;;;;;16.38;10.63;;;0.80;99.90;;;;;;4905934;29;20329;-74
2022/11/27 07:59:37;;;;;;;19.20;11.15;;;1.00;99.90;;;;;;4906871;29;20032;-75
2022/11/27 08:02:03;;;;;;;16.92;10.95;;;0.90;99.90;;;;;;4906519;29;20226;-76
2022/11/27 08:04:29;;;;;;;15.48;10.07;;;0.90;99.90;;;;;;4906996;29;20036;-76
2022/11/27 08:06:56;;;;;;;16.88;9.98;;;1.00;99.90;;;;;;4906743;29;20051;-76
2022/11/27 08:09:21;;;;;;;17.45;10.80;;;1.00;99.90;;;;;;4897475;29;20033;-75
2022/11/27 08:11:48;;;;;;;16.02;10.57;;;1.10;99.90;;;;;;4887799;29;20115;-77
2022/11/27 08:14:15;;;;;;;15.48;10.25;;;1.20;99.90;;;;;;4887347;29;20108;-75
2022/11/27 08:16:41;;;;;;;17.25;10.30;;;1.30;99.90;;;;;;4887594;29;20037;-74
2022/11/27 08:19:06;;;;;;;14.57;9.95;;;1.40;99.90;;;;;;4887032;29;20056;-78
2022/11/27 08:21:32;;;;;;;14.23;9.07;;;1.50;99.90;;;;;;4874087;29;20084;-74
2022/11/27 08:23:58;;;;;;;13.52;9.40;;;1.60;99.90;;;;;;4869299;29;20069;-74
2022/11/27 08:26:26;;;;;;;13.38;8.43;;;1.70;99.90;;;;;;4869382;29;20026;-74
2022/11/27 08:28:52;;;;;;;12.55;8.27;;;1.70;99.90;;;;;;4870004;29;20024;-73
2022/11/27 08:31:19;;;;;;;14.20;8.98;;;1.80;99.90;;;;;;4870078;29;20048;-75
2022/11/27 08:33:45;;;;;;;12.23;8.18;;;1.90;99.90;;;;;;4887950;29;20041;-75
2022/11/27 08:36:11;;;;;;;13.85;9.50;;;1.90;99.90;;;;;;4872000;29;20071;-75
2022/11/27 08:38:37;;;;;;;12.23;8.40;;;2.00;99.90;;;;;;4888461;29;20068;-75
2022/11/27 08:41:05;;;;;;;11.30;7.93;;;2.00;99.90;;;;;;4887649;29;20103;-75
2022/11/27 08:43:31;;;;;;;10.95;7.72;;;2.00;99.90;;;;;;4888311;29;20326;-76
2022/11/27 08:45:58;;;;;;;11.88;7.72;;;2.10;99.90;;;;;;4883528;29;20096;-75
2022/11/27 08:48:24;;;;;;;9.93;6.75;;;2.30;99.90;;;;;;4879882;29;20238;-74
2022/11/27 08:50:51;;;;;;;11.77;7.63;;;2.40;99.90;;;;;;4871139;29;20025;-75
2022/11/27 08:53:17;;;;;;;9.68;7.45;;;2.50;99.90;;;;;;4871461;29;20038;-77
2022/11/27 08:55:44;;;;;;;9.65;6.78;;;2.70;99.90;;;;;;4868215;29;20052;-74
2022/11/27 08:58:11;;;;;;;11.15;6.43;;;2.80;99.90;;;;;;4869677;29;20192;-75
2022/11/27 09:00:37;;;;;;;10.38;6.90;;;3.00;99.90;;;;;;4869794;29;20049;-74
2022/11/27 09:03:03;;;;;;;8.80;6.50;;;3.10;99.90;;;;;;4872411;29;20102;-74
2022/11/27 09:05:30;;;;;;;9.25;6.72;;;3.30;99.90;;;;;;4839412;29;20114;-75
2022/11/27 09:07:56;;;;;;;8.15;5.72;;;3.40;99.90;;;;;;4837628;29;20040;-75
2022/11/27 09:10:22;;;;;;;9.52;6.53;;;3.30;99.90;;;;;;4860369;29;20380;-75
2022/11/27 09:12:49;;;;;;;9.32;6.32;;;3.50;99.90;;;;;;4852704;29;20038;-75
2022/11/27 09:15:15;;;;;;;12.52;6.82;;;3.70;99.90;;;;;;4854407;29;20022;-76
2022/11/27 09:17:41;;;;;;;9.13;6.70;;;3.70;99.90;;;;;;4853021;29;20033;-76
2022/11/27 09:20:09;;;;;;;8.63;6.57;;;3.80;99.90;;;;;;4854450;29;20153;-76
2022/11/27 09:22:35;;;;;;;8.70;6.43;;;4.00;99.90;;;;;;4869144;29;20034;-76
2022/11/27 09:25:04;;;;;;;10.90;7.25;;;4.00;99.90;;;;;;4868339;29;20135;-76
2022/11/27 09:27:29;;;;;;;10.52;6.70;;;3.90;99.90;;;;;;4853140;29;20051;-76
2022/11/27 09:30:05;;;;;;;11.32;7.57;;;4.00;99.90;;;;;;4854826;29;20210;-77
2022/11/27 09:32:30;;;;;;;10.23;7.10;;;4.00;99.90;;;;;;4868565;29;20057;-77
2022/11/27 09:35:05;;;;;;;11.35;7.47;;;4.10;99.90;;;;;;4854225;29;20334;-78
2022/11/27 09:37:37;;;;;;;10.60;6.93;;;4.00;99.90;;;;;;4868501;29;20038;-76
2022/11/27 09:40:04;;;;;;;11.45;7.60;;;3.80;99.90;;;;;;4852118;29;20026;-75
2022/11/27 09:42:41;;;;;;;12.38;7.32;;;3.70;99.90;;;;;;4837386;29;20104;-75
2022/11/27 09:45:13;;;;;;;9.77;6.80;;;3.70;99.90;;;;;;4854786;29;20045;-75
2022/11/27 09:47:51;;;;;;;10.82;7.53;;;3.50;99.90;;;;;;4872476;29;20041;-73
2022/11/27 09:50:24;;;;;;;13.27;7.80;;;3.40;99.90;;;;;;4874211;29;20093;-74
2022/11/27 09:53:08;;;;;;;10.25;7.28;;;3.40;99.90;;;;;;4859984;29;20074;-76
2022/11/27 09:55:41;;;;;;;9.90;7.03;;;3.50;99.90;;;;;;4874048;29;20037;-74
2022/11/27 09:58:13;;;;;;;12.10;7.50;;;3.60;99.90;;;;;;4870563;29;20092;-75
2022/11/27 10:00:39;;;;;;;12.93;8.18;;;3.60;99.90;;;;;;4869958;29;20093;-75
2022/11/27 10:03:13;;;;;;;10.85;7.20;;;3.80;99.90;;;;;;4870385;29;20169;-77
2022/11/27 10:05:57;;;;;;;9.82;5.95;;;4.00;99.90;;;;;;4873960;29;20210;-74
2022/11/27 10:09:05;;;;;;;11.13;6.93;;;4.10;99.90;;;;;;4852569;29;20411;-75
2022/11/27 10:11:50;;;;;;;10.80;7.15;;;4.20;99.90;;;;;;4813118;29;20047;-75
2022/11/27 10:14:16;;;;;;;12.00;7.47;;;4.40;99.90;;;;;;4852920;29;20045;-76
2022/11/27 10:16:57;;;;;;;13.02;7.45;;;4.50;99.90;;;;;;4853916;29;20093;-76
2022/11/27 10:19:47;;;;;;;10.55;6.95;;;4.50;99.90;;;;;;4841621;29;20053;-75
2022/11/27 10:22:41;;;;;;;12.05;7.20;;;4.50;99.90;;;;;;4872378;29;20104;-74
2022/11/27 10:25:20;;;;;;;9.93;6.82;;;4.50;99.90;;;;;;4865964;29;20034;-74
2022/11/27 10:28:21;;;;;;;12.82;7.93;;;4.60;99.90;;;;;;4889281;29;20032;-76
2022/11/27 10:30:56;;;;;;;11.40;6.82;;;4.80;99.90;;;;;;4868646;29;20045;-75
2022/11/27 10:33:46;;;;;;;11.02;7.00;;;4.80;99.90;;;;;;4873292;29;20326;-76
2022/11/27 10:36:23;;;;;;;10.50;7.05;;;4.70;99.90;;;;;;4889526;29;20108;-75
2022/11/27 10:38:50;;;;;;;11.25;7.60;;;4.80;99.90;;;;;;4871675;29;20029;-76
2022/11/27 10:41:31;;;;;;;10.00;7.13;;;5.10;99.90;;;;;;4888614;29;20088;-75
2022/11/27 10:44:02;;;;;;;10.15;7.15;;;5.50;99.90;;;;;;4888399;29;20037;-74
2022/11/27 10:46:35;;;;;;;9.68;6.63;;;5.90;99.90;;;;;;4864019;29;20026;-76
2022/11/27 10:49:00;;;;;;;8.07;6.15;;;6.20;99.90;;;;;;4869681;29;20033;-76
2022/11/27 10:51:40;;;;;;;9.10;6.25;;;6.50;99.90;;;;;;4869845;29;20048;-78
2022/11/27 10:54:11;;;;;;;8.85;6.00;;;7.00;99.90;;;;;;4853150;29;20100;-75
2022/11/27 10:56:56;;;;;;;8.43;6.32;;;7.60;99.90;;;;;;4867484;29;20048;-75
2022/11/27 10:59:34;;;;;;;7.57;5.70;;;8.30;99.90;;;;;;4869706;29;20077;-75
2022/11/27 11:02:02;;;;;;;9.07;6.10;;;8.70;99.90;;;;;;4869183;29;20113;-75
2022/11/27 11:04:30;;;;;;;8.38;5.70;;;9.30;99.90;;;;;;4869902;29;20037;-76
2022/11/27 11:06:56;;;;;;;9.13;6.30;;;9.70;99.90;;;;;;4872393;29;20029;-75
2022/11/27 11:09:28;;;;;;;8.90;6.07;;;10.50;99.90;;;;;;4869374;29;20050;-78
2022/11/27 11:12:05;;;;;;;7.32;5.07;;;11.30;99.90;;;;;;4868946;29;20093;-78
2022/11/27 11:14:31;;;;;;;7.80;5.55;;;12.00;98.80;;;;;;4869719;29;20161;-78
2022/11/27 11:16:57;;;;;;;8.40;5.47;;;12.60;98.00;;;;;;4868698;29;20029;-75
2022/11/27 11:19:30;;;;;;;7.00;5.40;;;13.00;96.30;;;;;;4868961;29;20061;-77
2022/11/27 11:21:58;;;;;;;6.78;4.78;;;13.30;95.90;;;;;;4868970;29;20041;-76
2022/11/27 11:24:28;;;;;;;6.47;4.85;;;13.50;94.70;;;;;;4868307;29;20172;-76
2022/11/27 11:27:06;;;;;;;7.07;4.88;;;14.00;94.70;;;;;;4870260;29;20101;-75
2022/11/27 11:29:50;;;;;;;6.50;4.90;;;14.60;93.70;;;;;;4869458;29;20037;-77
2022/11/27 11:32:19;;;;;;;7.53;4.25;;;14.80;92.40;;;;;;4868006;29;20215;-77
2022/11/27 11:35:08;;;;;;;8.60;5.05;;;14.90;92.10;;;;;;4867779;29;20200;-77
2022/11/27 11:37:38;;;;;;;6.93;4.68;;;14.50;91.90;;;;;;4852785;29;20164;-77
2022/11/27 11:40:19;;;;;;;7.15;4.55;;;14.00;91.90;;;;;;4868874;29;20045;-77
2022/11/27 11:43:04;;;;;;;6.30;4.20;;;13.50;92.60;;;;;;4868856;29;20036;-76
2022/11/27 11:45:31;;;;;;;7.30;5.10;;;12.50;93.00;;;;;;4869068;29;20062;-76
2022/11/27 11:48:18;;;;;;;6.85;5.00;;;11.90;94.80;;;;;;4855375;29;20028;-77
2022/11/27 11:51:19;;;;;;;7.75;4.97;;;11.40;95.20;;;;;;4868885;29;20026;-74
2022/11/27 11:54:09;;;;;;;5.85;4.50;;;11.70;95.90;;;;;;4868899;29;20312;-74
2022/11/27 11:56:42;;;;;;;6.93;4.88;;;13.40;93.90;;;;;;4868912;29;20067;-77
2022/11/27 11:59:16;;;;;;;6.07;4.53;;;15.30;91.00;;;;;;4868297;29;20029;-75
2022/11/27 12:01:52;;;;;;;7.72;5.10;;;16.90;87.60;;;;;;4851388;29;20072;-76
2022/11/27 12:05:02;;;;;;;5.97;3.92;;;18.00;83.90;;;;;;4868335;29;20048;-77
2022/11/27 12:07:48;;;;;;;7.28;3.80;;;18.70;80.40;;;;;;4867085;29;20061;-75
2022/11/27 12:10:47;;;;;;;4.88;3.35;;;18.90;77.70;;;;;;4867176;29;20219;-76
2022/11/27 12:13:58;;;;;;;7.20;4.20;;;18.80;76.90;;;;;;4867499;29;20037;-78
2022/11/27 12:16:57;;;;;;;6.32;3.92;;;17.70;76.80;;;;;;4831861;29;20116;-74
2022/11/27 12:19:41;;;;;;;6.15;4.35;;;17.40;77.90;;;;;;4852126;29;20074;-74
2022/11/27 12:22:36;;;;;;;6.97;4.15;;;17.70;78.00;;;;;;4850966;29;20367;-73
2022/11/27 12:25:31;;;;;;;5.97;4.50;;;18.00;76.80;;;;;;4867393;29;20097;-76
2022/11/27 12:28:26;;;;;;;7.18;4.50;;;19.00;74.90;;;;;;4867271;29;20109;-75
2022/11/27 12:31:27;;;;;;;5.30;4.20;;;19.10;74.80;;;;;;4858150;29;20339;-76
2022/11/27 12:34:37;;;;;;;6.88;4.63;;;19.40;75.90;;;;;;4866708;29;20065;-76
2022/11/27 12:37:34;;;;;;;6.18;4.35;;;19.70;72.40;;;;;;4869452;29;20038;-74
2022/11/27 12:40:00;;;;;;;4.68;3.67;;;19.50;72.40;;;;;;4870116;29;20033;-76
2022/11/27 12:42:32;;;;;;;5.32;3.72;;;19.00;72.60;;;;;;4870826;29;20101;-74
2022/11/27 12:45:18;;;;;;;8.80;4.53;;;18.50;74.30;;;;;;4854124;29;20045;-74
2022/11/27 12:47:54;;;;;;;5.18;3.75;;;17.90;73.90;;;;;;4870974;29;20045;-73
2022/11/27 12:50:41;;;;;;;6.93;4.55;;;17.00;75.90;;;;;;4862788;29;20367;-74
2022/11/27 12:53:16;;;;;;;6.57;4.50;;;16.20;77.50;;;;;;4852687;29;20086;-77
2022/11/27 12:55:47;;;;;;;6.35;4.03;;;15.30;79.40;;;;;;4854248;29;20312;-78
2022/11/27 12:58:36;;;;;;;6.38;4.53;;;14.60;81.40;;;;;;4869460;29;20045;-75
2022/11/27 13:04:21;;;;;;;7.43;4.32;;;14.20;83.60;;;;;;5077803;27;20644;-75
2022/11/27 13:07:16;;;;;;;7.15;4.30;;;14.40;83.20;;;;;;5077282;28;20353;-74
2022/11/27 13:09:51;;;;;;;7.18;4.50;;;14.50;83.10;;;;;;5075866;28;20155;-77
2022/11/27 13:12:28;;;;;;;7.85;4.47;;;14.20;82.70;;;;;;5064944;28;20022;-77
2022/11/27 13:15:00;;;;;;;7.05;4.28;;;14.10;83.80;;;;;;5041138;28;20029;-77
2022/11/27 13:17:35;;;;;;;5.95;4.00;;;14.20;85.40;;;;;;5058535;28;20064;-78
2022/11/27 13:20:03;;;;;;;6.03;4.03;;;14.20;85.90;;;;;;5058027;28;20025;-75
2022/11/27 13:22:34;;;;;;;6.85;4.00;;;14.40;83.30;;;;;;5073599;28;20498;-76
2022/11/27 13:25:01;;;;;;;7.03;4.50;;;14.10;84.00;;;;;;5073272;28;20311;-75
2022/11/27 13:27:29;;;;;;;6.85;4.50;;;13.80;85.30;;;;;;5058371;28;20026;-76
2022/11/27 13:30:04;;;;;;;6.88;4.45;;;13.60;86.20;;;;;;5090101;28;20245;-75
2022/11/27 13:32:40;;;;;;;7.47;4.93;;;13.10;86.90;;;;;;5065190;28;20043;-76
2022/11/27 13:35:30;;;;;;;7.40;4.68;;;12.90;88.30;;;;;;5076564;28;20024;-76
2022/11/27 13:38:19;;;;;;;7.30;4.57;;;12.90;89.10;;;;;;5077111;28;20025;-76
2022/11/27 13:40:48;;;;;;;8.40;5.32;;;13.10;88.80;;;;;;5077875;28;20221;-74
2022/11/27 13:43:39;;;;;;;7.32;5.03;;;12.90;89.00;;;;;;5075953;28;20040;-73
2022/11/27 13:46:10;;;;;;;7.30;4.93;;;12.60;90.20;;;;;;5077026;28;20061;-73
2022/11/27 13:48:46;;;;;;;6.80;5.05;;;12.30;90.60;;;;;;5077396;28;20627;-73
2022/11/27 13:51:31;;;;;;;8.15;5.32;;;12.10;91.10;;;;;;5076764;28;20048;-73
2022/11/27 13:54:15;;;;;;;7.95;5.55;;;12.10;93.00;;;;;;5071191;28;20043;-73
2022/11/27 13:56:41;;;;;;;7.38;4.90;;;12.30;93.10;;;;;;5076961;28;20218;-73
2022/11/27 13:59:17;;;;;;;8.68;5.53;;;12.40;91.70;;;;;;5076708;28;20034;-73
2022/11/27 14:02:04;;;;;;;8.52;5.80;;;12.30;91.50;;;;;;5068097;28;20060;-73
2022/11/27 14:04:32;;;;;;;9.23;5.60;;;12.20;92.10;;;;;;5057198;28;20356;-73
2022/11/27 14:07:08;;;;;;;11.45;6.68;;;12.00;91.40;;;;;;5056562;28;20032;-73
2022/11/27 14:09:45;;;;;;;11.32;7.25;;;11.90;92.40;;;;;;5057032;28;20084;-73
2022/11/27 14:12:35;;;;;;;11.20;7.32;;;11.80;92.70;;;;;;5056551;28;20063;-73
2022/11/27 14:15:15;;;;;;;12.77;8.20;;;11.70;93.00;;;;;;5044760;28;20033;-73
2022/11/27 14:17:46;;;;;;;18.38;13.05;;;11.60;92.60;;;;;;5038448;28;20041;-75
2022/11/27 14:20:15;;;;;;;13.95;10.55;;;11.50;93.30;;;;;;5023917;28;20460;-73
2022/11/27 14:22:45;;;;;;;;;;;11.40;93.80;;;;;;5024132;28;20102;-76
2022/11/27 14:25:31;;;;;;;9.80;6.18;;;11.40;95.00;;;;;;5022234;28;20103;-77
2022/11/27 14:28:25;;;;;;;10.45;6.35;;;11.40;94.90;;;;;;5059011;28;20021;-75
2022/11/27 14:31:01;;;;;;;10.30;6.05;;;11.20;94.80;;;;;;5057178;28;20037;-73
2022/11/27 14:33:44;;;;;;;8.38;5.50;;;11.00;94.80;;;;;;5061838;28;20057;-73
2022/11/27 14:36:22;;;;;;;8.45;5.82;;;10.80;95.00;;;;;;5042010;28;20052;-75
2022/11/27 14:38:48;;;;;;;8.82;5.70;;;10.60;95.70;;;;;;5043744;28;20040;-75
2022/11/27 14:41:20;;;;;;;11.48;6.25;;;10.50;96.00;;;;;;5042883;28;20215;-76
2022/11/27 14:43:46;;;;;;;11.13;6.43;;;10.30;96.00;;;;;;5042666;28;20026;-75
2022/11/27 14:46:17;;;;;;;11.10;6.15;;;10.20;96.30;;;;;;5043607;28;20040;-77
2022/11/27 14:48:48;;;;;;;10.70;7.07;;;10.10;97.20;;;;;;5045900;28;20312;-75
2022/11/27 14:51:19;;;;;;;11.00;6.40;;;10.10;96.90;;;;;;5042993;28;20090;-75
2022/11/27 14:53:47;;;;;;;15.02;9.73;;;10.00;97.50;;;;;;5038788;28;20128;-74
2022/11/27 14:56:14;;;;;;;16.20;11.10;;;9.80;98.10;;;;;;5022999;28;20367;-74
2022/11/27 14:58:51;;;;;;;25.25;17.08;;;9.80;98.30;;;;;;5039252;28;20311;-74
2022/11/27 15:01:26;;;;;;;19.00;12.30;;;9.60;98.50;;;;;;5042721;28;20104;-74
2022/11/27 15:04:01;;;;;;;11.48;6.85;;;9.60;98.80;;;;;;5043249;28;20053;-76
2022/11/27 15:06:35;;;;;;;10.80;6.93;;;9.50;99.00;;;;;;5050858;28;20033;-74
2022/11/27 15:09:01;;;;;;;11.18;6.32;;;9.40;99.30;;;;;;5051023;28;20311;-74
2022/11/27 15:11:28;;;;;;;10.57;6.32;;;9.40;99.30;;;;;;5049140;28;20087;-73
2022/11/27 15:13:58;;;;;;;12.27;6.73;;;9.20;99.50;;;;;;5043272;28;20025;-76
2022/11/27 15:16:26;;;;;;;9.90;6.13;;;9.20;99.90;;;;;;5042622;28;20262;-73
2022/11/27 15:19:04;;;;;;;9.37;6.17;;;9.10;99.90;;;;;;5042826;28;20087;-73
2022/11/27 15:21:37;;;;;;;9.88;6.32;;;9.00;99.90;;;;;;5042287;28;20458;-75
2022/11/27 15:24:03;;;;;;;9.02;6.38;;;9.00;99.90;;;;;;5041964;28;20123;-75
2022/11/27 15:26:38;;;;;;;8.95;5.88;;;8.90;99.90;;;;;;5042316;28;20083;-74
2022/11/27 15:29:30;;;;;;;9.88;6.05;;;8.90;99.90;;;;;;5042053;28;20302;-74
2022/11/27 15:31:56;;;;;;;13.20;6.18;;;8.90;99.90;;;;;;5040946;28;20076;-73
2022/11/27 15:34:23;;;;;;;11.35;6.95;;;8.80;99.90;;;;;;5042179;28;20025;-74
2022/11/27 15:37:05;;;;;;;10.13;6.90;;;8.80;99.90;;;;;;5042494;28;20033;-74
2022/11/27 15:39:44;;;;;;;11.98;5.97;;;8.80;99.90;;;;;;5042013;28;20022;-75
2022/11/27 15:42:10;;;;;;;10.90;6.43;;;8.80;99.80;;;;;;5042007;28;20037;-74
2022/11/27 15:44:37;;;;;;;9.88;5.60;;;8.70;99.90;;;;;;5042534;28;20025;-74
2022/11/27 15:47:04;;;;;;;10.98;6.03;;;8.70;99.50;;;;;;5042027;28;20037;-74
2022/11/27 15:49:30;;;;;;;9.40;5.77;;;8.70;99.90;;;;;;5041137;28;20081;-74
2022/11/27 15:51:57;;;;;;;10.23;6.10;;;8.70;99.90;;;;;;5042350;28;20033;-73
2022/11/27 15:54:24;;;;;;;11.07;6.30;;;8.60;99.90;;;;;;5037515;28;20075;-73
2022/11/27 15:56:50;;;;;;;10.90;6.10;;;8.60;99.90;;;;;;5037853;28;20062;-73
2022/11/27 15:59:18;;;;;;;9.60;5.82;;;8.60;99.90;;;;;;5040242;28;20357;-72
2022/11/27 16:01:44;;;;;;;10.00;6.05;;;8.50;99.90;;;;;;5024146;28;20319;-72
2022/11/27 16:04:10;;;;;;;9.77;5.60;;;8.50;99.90;;;;;;5023260;28;20034;-73
2022/11/27 16:06:36;;;;;;;10.30;6.32;;;8.50;99.90;;;;;;5023675;28;20323;-73
2022/11/27 16:09:03;;;;;;;9.55;5.82;;;8.40;99.90;;;;;;5024222;28;20099;-75
2022/11/27 16:11:31;;;;;;;11.25;6.43;;;8.40;99.90;;;;;;5034632;28;20060;-73
2022/11/27 16:13:57;;;;;;;10.45;6.78;;;8.30;99.90;;;;;;5044851;28;20038;-74
2022/11/27 16:16:24;;;;;;;10.73;6.50;;;8.20;99.90;;;;;;5046057;28;20092;-74
2022/11/27 16:18:50;;;;;;;11.77;7.47;;;8.10;99.90;;;;;;5047541;28;20029;-72
2022/11/27 16:21:16;;;;;;;11.80;7.63;;;8.10;99.90;;;;;;5039776;28;20025;-76
2022/11/27 16:23:43;;;;;;;13.13;8.50;;;8.00;99.90;;;;;;5041422;28;20048;-76
2022/11/27 16:26:13;;;;;;;12.25;7.35;;;7.90;99.90;;;;;;5039860;28;20063;-76
2022/11/27 16:28:39;;;;;;;11.85;7.75;;;7.90;99.90;;;;;;5041656;28;20097;-76
2022/11/27 16:31:09;;;;;;;11.73;7.57;;;7.80;99.90;;;;;;5040878;28;20025;-76
2022/11/27 16:33:35;;;;;;;13.60;7.88;;;7.80;99.90;;;;;;5041616;28;20041;-77
2022/11/27 16:36:33;;;;;;;13.57;7.85;;;7.70;99.90;;;;;;5040745;28;20210;-75
2022/11/27 16:39:00;;;;;;;14.35;7.88;;;7.60;99.90;;;;;;5040845;28;20025;-77
2022/11/27 16:41:27;;;;;;;11.63;7.82;;;7.60;99.90;;;;;;5041229;28;20237;-77
2022/11/27 16:43:55;;;;;;;14.48;8.77;;;7.50;99.90;;;;;;5041117;28;20025;-75
2022/11/27 16:46:25;;;;;;;10.70;7.43;;;7.50;99.90;;;;;;5041344;28;20516;-77
2022/11/27 16:48:53;;;;;;;13.73;7.60;;;7.50;99.90;;;;;;5040096;28;20033;-75
2022/11/27 16:51:22;;;;;;;12.68;7.45;;;7.40;99.90;;;;;;5039928;28;20025;-76
2022/11/27 16:53:50;;;;;;;11.18;7.43;;;7.40;99.90;;;;;;5042420;28;20052;-77
2022/11/27 16:56:20;;;;;;;12.75;7.72;;;7.30;99.90;;;;;;5040485;28;20033;-77
2022/11/27 16:58:47;;;;;;;13.95;7.97;;;7.40;99.90;;;;;;5041755;28;20028;-77
2022/11/27 17:01:19;;;;;;;23.15;15.18;;;7.40;99.90;;;;;;5057309;28;20026;-77
2022/11/27 17:03:45;;;;;;;11.05;7.18;;;7.40;99.90;;;;;;5042125;28;20041;-76
2022/11/27 17:06:21;;;;;;;10.55;6.68;;;7.40;99.90;;;;;;5040666;28;20030;-78
2022/11/27 17:08:48;;;;;;;10.63;7.22;;;7.40;99.90;;;;;;5041443;28;20018;-78
2022/11/27 17:11:19;;;;;;;9.60;6.40;;;7.40;99.90;;;;;;5039965;28;20057;-76
2022/11/27 17:13:46;;;;;;;11.73;7.15;;;7.40;99.90;;;;;;5041778;28;20018;-76
2022/11/27 17:16:13;;;;;;;10.25;6.78;;;7.40;99.90;;;;;;5040169;28;20037;-77
2022/11/27 17:18:44;;;;;;;11.60;6.90;;;7.30;99.90;;;;;;5040157;28;20029;-78
2022/11/27 17:21:20;;;;;;;10.05;7.22;;;7.30;99.90;;;;;;5023677;28;20037;-77
2022/11/27 17:23:46;;;;;;;11.75;7.05;;;7.30;99.90;;;;;;5041836;28;20052;-75
2022/11/27 17:26:16;;;;;;;11.13;6.93;;;7.20;99.90;;;;;;5024194;28;20100;-76
2022/11/27 17:28:42;;;;;;;10.77;6.72;;;7.20;99.90;;;;;;5040304;28;20341;-78
2022/11/27 17:31:19;;;;;;;10.30;6.78;;;7.20;99.90;;;;;;5035320;28;20022;-79
2022/11/27 17:33:46;;;;;;;14.67;6.93;;;7.10;99.90;;;;;;5054086;28;20026;-78
2022/11/27 17:36:14;;;;;;;9.10;5.63;;;7.10;99.90;;;;;;5052629;28;20076;-77
2022/11/27 17:38:40;;;;;;;9.55;5.75;;;7.10;99.90;;;;;;5020915;28;20211;-78
2022/11/27 17:41:10;;;;;;;8.65;5.82;;;7.10;99.90;;;;;;5019981;28;20037;-78
2022/11/27 17:43:38;;;;;;;10.15;6.43;;;7.10;99.90;;;;;;5020896;28;20053;-76
2022/11/27 17:46:18;;;;;;;9.88;6.53;;;7.10;99.90;;;;;;5020510;28;20076;-76
2022/11/27 17:48:45;;;;;;;10.98;7.13;;;7.10;99.90;;;;;;5021028;28;20103;-77
2022/11/27 17:51:15;;;;;;;9.05;6.22;;;7.00;99.90;;;;;;5007179;28;20022;-76
2022/11/27 17:54:05;;;;;;;9.23;5.93;;;6.90;99.90;;;;;;5056455;28;20032;-78
2022/11/27 17:59:33;;;;;;;9.25;6.13;;;6.90;99.90;;;;;;5023168;28;20171;-77
2022/11/27 18:02:17;;;;;;;8.93;5.50;;;6.90;99.90;;;;;;5055122;28;20054;-77
2022/11/27 18:04:50;;;;;;;10.52;6.15;;;6.80;99.90;;;;;;5039621;28;20434;-76
2022/11/27 18:07:52;;;;;;;10.77;5.88;;;6.80;99.90;;;;;;5056261;28;20033;-75
2022/11/27 18:14:10;;;;;;;8.85;5.63;;;6.80;99.90;;;;;;5039063;28;20052;-76
2022/11/27 18:17:02;;;;;;;18.30;11.57;;;6.70;99.90;;;;;;5050154;28;20030;-76
2022/11/27 18:22:29;;;;;;;9.15;6.32;;;6.70;99.90;;;;;;5075756;28;20037;-77
2022/11/27 18:25:47;;;;;;;11.45;6.45;;;6.70;99.90;;;;;;5043496;28;20025;-77
2022/11/27 18:31:59;;;;;;;10.52;6.90;;;6.70;99.90;;;;;;5043663;28;20327;-80
2022/11/27 18:34:29;;;;;;;10.77;7.00;;;6.60;99.90;;;;;;5058368;28;20056;-76
2022/11/27 18:36:58;;;;;;;11.25;6.80;;;6.60;99.90;;;;;;5043565;28;20032;-77
2022/11/27 18:39:30;;;;;;;11.05;7.30;;;6.60;99.90;;;;;;5041310;28;20223;-76
2022/11/27 18:45:50;;;;;;;13.07;7.13;;;6.60;99.90;;;;;;5043400;28;20038;-77
2022/11/27 18:52:43;;;;;;;25.30;15.02;;;6.50;99.90;;;;;;5043195;28;20271;-75
2022/11/27 18:55:34;;;;;;;22.08;14.68;;;6.60;99.90;;;;;;5041686;28;20026;-78
2022/11/27 18:58:34;;;;;;;14.43;8.90;;;6.60;99.90;;;;;;5042062;28;20096;-77
2022/11/27 19:01:27;;;;;;;12.25;6.82;;;6.50;99.90;;;;;;5041560;28;20063;-76
2022/11/27 19:04:20;;;;;;;11.02;6.57;;;6.50;99.90;;;;;;5041523;28;20112;-78
2022/11/27 19:11:43;;;;;;;11.35;7.25;;;6.30;99.90;;;;;;4936688;29;20078;-76
2022/11/27 19:26:09;;;;;;;11.73;7.40;;;6.40;99.90;;;;;;4975099;28;20143;-76
2022/11/27 19:28:46;;;;;;;11.60;6.55;;;6.40;99.90;;;;;;4976541;28;20287;-77
2022/11/27 19:31:15;;;;;;;10.38;6.43;;;6.30;99.90;;;;;;4982533;28;20096;-77
2022/11/27 19:40:49;;;;;;;12.35;7.60;;;6.30;99.90;;;;;;4945972;29;20268;-76
2022/11/27 19:43:27;;;;;;;11.05;7.07;;;6.20;99.90;;;;;;4961179;28;20046;-76
2022/11/27 19:45:59;;;;;;;12.75;7.75;;;6.30;99.90;;;;;;4962909;28;20033;-78
2022/11/27 19:48:25;;;;;;;11.57;7.60;;;6.20;99.90;;;;;;4999607;28;20371;-77
2022/11/27 19:51:30;;;;;;;11.07;7.43;;;6.30;99.90;;;;;;5015048;28;20096;-77
2022/11/27 19:54:11;;;;;;;13.05;7.70;;;6.30;99.90;;;;;;5016747;28;20132;-77
2022/11/27 19:56:48;;;;;;;12.75;8.00;;;6.20;99.90;;;;;;5005963;28;20037;-77
2022/11/27 19:59:42;;;;;;;12.88;7.75;;;6.10;99.90;;;;;;4984854;28;20085;-78
2022/11/27 20:02:23;;;;;;;14.40;8.20;;;6.10;99.90;;;;;;5000130;28;20058;-77
2022/11/27 20:05:13;;;;;;;12.20;7.95;;;6.10;99.90;;;;;;5028237;28;20063;-76
2022/11/27 20:07:47;;;;;;;11.65;7.35;;;6.10;99.90;;;;;;5041427;28;20040;-78
2022/11/27 20:10:19;;;;;;;11.60;7.13;;;6.00;99.90;;;;;;5041789;28;20029;-78